Aérodrome :
LOGIN :

S'inscrire | Disclaimer

   EN    FR    IT 

 










Légende :    VFR   VFR Marginal   IFR   IFR Intensif   IFR Très Intensif
Visi : 
Plafond : 
>= 8 km
>= 3000ft
5 à 8 km
1000 à 3000 ft
1500m à 5 km
500 à 1000 ft
800 à 1500m
200 à 500 ft
< 800m
< 200 ft
Symboles :   Orages  Brouillard  Fortes neiges  Fortes précipitations  Vent > 20 kt
SIGMETs :   Divers  Orages  Givrage  Turbulence  Onde Orograph.  Cendres Volcan.






- Altitude de l'aérodrome : 59 ft
- Code IATA : TSF


LIPH - Treviso

DERNIER METAR :
  • 070150Z AUTO 07012KT 9999 OVC100/// 19/16 Q1011

METARs EXPIRÉS :
  • 070120Z AUTO 06008KT 020V080 9999 BKN095/// BKN120/// 19/16 Q1010
  • 070050Z AUTO 05008KT 010V070 9999 SCT094/// SCT100/// BKN120/// 19/16 Q1009
  • 070020Z AUTO 06013KT 9999 BKN093/// 20/17 Q1009
  • 062350Z AUTO 05014KT 9999 OVC089/// 21/19 Q1008 RESHRA

TAF TAF LIPH
Valide du 07 à 00h jusqu'au 08 à 00h UTC


062300Z 0700/0724 05012KT 9999 FEW030
TEMPO 0700/0704 TSRA
BECMG 0716/0718 VRB05KT



MET'MAP, la Météo Aéronautique d'un coup d'oeil ! - Copyright ORBIFLY Décembre 2007 - Disclaimer

ORBIFLY MET'MAP TEAM :

Programmation & Développement : Alexandra Zaïnal
Sur une idée originale de : Baudouin d'Aumeries
Assistance à la programmation : Marc-Olivier Méhu
Soutien technique & logistique : Manuel Goepfert

Contact : metmap@orbifly.com




SOURCES & CREDITS :

   NOAA